sensor_id;sensor_type;location;lat;lon;timestamp;P1;durP1;ratioP1;P2;durP2;ratioP2
76157;SDS011;64907;51.574;6.502;2023-04-24T00:00:53;3.38;;;3.17;;
76157;SDS011;64907;51.574;6.502;2023-04-24T00:03:21;3.75;;;3.10;;
76157;SDS011;64907;51.574;6.502;2023-04-24T00:05:47;4.10;;;2.95;;
76157;SDS011;64907;51.574;6.502;2023-04-24T00:08:12;3.78;;;3.05;;
76157;SDS011;64907;51.574;6.502;2023-04-24T00:10:38;3.50;;;3.30;;
76157;SDS011;64907;51.574;6.502;2023-04-24T00:13:03;4.53;;;4.13;;
76157;SDS011;64907;51.574;6.502;2023-04-24T00:15:28;4.40;;;4.00;;
76157;SDS011;64907;51.574;6.502;2023-04-24T00:17:53;3.80;;;3.60;;
76157;SDS011;64907;51.574;6.502;2023-04-24T00:20:18;4.22;;;3.80;;
76157;SDS011;64907;51.574;6.502;2023-04-24T00:22:44;3.92;;;3.53;;
76157;SDS011;64907;51.574;6.502;2023-04-24T00:25:09;4.57;;;4.30;;
76157;SDS011;64907;51.574;6.502;2023-04-24T00:27:34;4.78;;;4.40;;
76157;SDS011;64907;51.574;6.502;2023-04-24T00:30:02;4.80;;;4.40;;
76157;SDS011;64907;51.574;6.502;2023-04-24T00:32:27;5.53;;;5.13;;
76157;SDS011;64907;51.574;6.502;2023-04-24T00:34:52;6.45;;;5.38;;
76157;SDS011;64907;51.574;6.502;2023-04-24T00:37:17;6.87;;;5.67;;
76157;SDS011;64907;51.574;6.502;2023-04-24T00:39:42;6.73;;;5.30;;
76157;SDS011;64907;51.574;6.502;2023-04-24T00:42:08;6.57;;;5.73;;
76157;SDS011;64907;51.574;6.502;2023-04-24T00:44:33;6.45;;;5.78;;
76157;SDS011;64907;51.574;6.502;2023-04-24T00:46:59;6.72;;;6.00;;
76157;SDS011;64907;51.574;6.502;2023-04-24T00:49:25;8.85;;;6.03;;
76157;SDS011;64907;51.574;6.502;2023-04-24T00:51:50;7.00;;;5.20;;
76157;SDS011;64907;51.574;6.502;2023-04-24T00:54:16;5.22;;;4.82;;
76157;SDS011;64907;51.574;6.502;2023-04-24T00:56:41;6.93;;;5.13;;
76157;SDS011;64907;51.574;6.502;2023-04-24T00:59:07;5.10;;;4.45;;
76157;SDS011;64907;51.574;6.502;2023-04-24T01:01:32;9.77;;;5.43;;
76157;SDS011;64907;51.574;6.502;2023-04-24T01:03:58;6.70;;;5.65;;
76157;SDS011;64907;51.574;6.502;2023-04-24T01:06:24;5.22;;;4.85;;
76157;SDS011;64907;51.574;6.502;2023-04-24T01:08:52;8.73;;;5.95;;
76157;SDS011;64907;51.574;6.502;2023-04-24T01:11:20;9.30;;;7.13;;
76157;SDS011;64907;51.574;6.502;2023-04-24T01:13:46;7.78;;;6.97;;
76157;SDS011;64907;51.574;6.502;2023-04-24T01:16:12;7.47;;;6.97;;
76157;SDS011;64907;51.574;6.502;2023-04-24T01:18:37;8.25;;;7.43;;
76157;SDS011;64907;51.574;6.502;2023-04-24T01:21:03;12.70;;;7.25;;
76157;SDS011;64907;51.574;6.502;2023-04-24T01:23:28;7.55;;;6.85;;
76157;SDS011;64907;51.574;6.502;2023-04-24T01:25:54;7.72;;;7.03;;
76157;SDS011;64907;51.574;6.502;2023-04-24T01:28:19;8.68;;;7.78;;
76157;SDS011;64907;51.574;6.502;2023-04-24T01:30:44;8.70;;;7.63;;
76157;SDS011;64907;51.574;6.502;2023-04-24T01:33:10;9.02;;;7.32;;
76157;SDS011;64907;51.574;6.502;2023-04-24T01:35:35;10.55;;;8.63;;
76157;SDS011;64907;51.574;6.502;2023-04-24T01:38:01;9.10;;;8.30;;
76157;SDS011;64907;51.574;6.502;2023-04-24T01:40:26;11.20;;;8.80;;
76157;SDS011;64907;51.574;6.502;2023-04-24T01:42:51;11.63;;;9.13;;
76157;SDS011;64907;51.574;6.502;2023-04-24T01:45:17;12.98;;;8.98;;
76157;SDS011;64907;51.574;6.502;2023-04-24T01:47:42;9.82;;;8.82;;
76157;SDS011;64907;51.574;6.502;2023-04-24T01:50:08;11.75;;;9.05;;
76157;SDS011;64907;51.574;6.502;2023-04-24T01:52:33;12.23;;;9.68;;
76157;SDS011;64907;51.574;6.502;2023-04-24T01:55:00;12.98;;;9.90;;
76157;SDS011;64907;51.574;6.502;2023-04-24T01:57:25;12.88;;;9.65;;
76157;SDS011;64907;51.574;6.502;2023-04-24T01:59:51;11.35;;;10.15;;
76157;SDS011;64907;51.574;6.502;2023-04-24T02:02:16;14.15;;;9.90;;
76157;SDS011;64907;51.574;6.502;2023-04-24T02:04:41;13.27;;;10.27;;
76157;SDS011;64907;51.574;6.502;2023-04-24T02:07:06;14.35;;;11.43;;
76157;SDS011;64907;51.574;6.502;2023-04-24T02:09:31;16.35;;;11.73;;
76157;SDS011;64907;51.574;6.502;2023-04-24T02:11:57;13.90;;;12.13;;
76157;SDS011;64907;51.574;6.502;2023-04-24T02:14:22;17.23;;;12.55;;
76157;SDS011;64907;51.574;6.502;2023-04-24T02:16:48;16.23;;;12.15;;
76157;SDS011;64907;51.574;6.502;2023-04-24T02:19:13;22.02;;;12.95;;
76157;SDS011;64907;51.574;6.502;2023-04-24T02:21:39;18.98;;;13.63;;
76157;SDS011;64907;51.574;6.502;2023-04-24T02:24:04;14.77;;;11.55;;
76157;SDS011;64907;51.574;6.502;2023-04-24T02:26:29;18.83;;;12.80;;
76157;SDS011;64907;51.574;6.502;2023-04-24T02:28:56;18.70;;;13.60;;
76157;SDS011;64907;51.574;6.502;2023-04-24T02:31:21;14.27;;;12.63;;
76157;SDS011;64907;51.574;6.502;2023-04-24T02:33:47;18.00;;;13.32;;
76157;SDS011;64907;51.574;6.502;2023-04-24T02:36:12;17.45;;;13.80;;
76157;SDS011;64907;51.574;6.502;2023-04-24T02:38:38;16.73;;;13.60;;
76157;SDS011;64907;51.574;6.502;2023-04-24T02:41:03;20.80;;;14.75;;
76157;SDS011;64907;51.574;6.502;2023-04-24T02:43:31;20.02;;;14.77;;
76157;SDS011;64907;51.574;6.502;2023-04-24T02:45:56;19.27;;;13.87;;
76157;SDS011;64907;51.574;6.502;2023-04-24T02:48:21;16.02;;;13.32;;
76157;SDS011;64907;51.574;6.502;2023-04-24T02:50:46;20.75;;;14.80;;
76157;SDS011;64907;51.574;6.502;2023-04-24T02:53:11;19.23;;;14.52;;
76157;SDS011;64907;51.574;6.502;2023-04-24T02:55:37;22.38;;;15.25;;
76157;SDS011;64907;51.574;6.502;2023-04-24T02:58:02;18.40;;;14.82;;
76157;SDS011;64907;51.574;6.502;2023-04-24T03:00:27;27.10;;;15.48;;
76157;SDS011;64907;51.574;6.502;2023-04-24T03:02:52;21.77;;;15.87;;
76157;SDS011;64907;51.574;6.502;2023-04-24T03:05:18;24.33;;;15.98;;
76157;SDS011;64907;51.574;6.502;2023-04-24T03:07:43;21.42;;;16.13;;
76157;SDS011;64907;51.574;6.502;2023-04-24T03:10:08;23.23;;;16.90;;
76157;SDS011;64907;51.574;6.502;2023-04-24T03:12:33;23.38;;;17.02;;
76157;SDS011;64907;51.574;6.502;2023-04-24T03:14:59;23.80;;;17.17;;
76157;SDS011;64907;51.574;6.502;2023-04-24T03:17:24;20.67;;;17.35;;
76157;SDS011;64907;51.574;6.502;2023-04-24T03:19:49;19.55;;;16.80;;
76157;SDS011;64907;51.574;6.502;2023-04-24T03:22:15;21.80;;;17.20;;
76157;SDS011;64907;51.574;6.502;2023-04-24T03:24:42;20.75;;;17.15;;
76157;SDS011;64907;51.574;6.502;2023-04-24T03:27:07;27.95;;;18.13;;
76157;SDS011;64907;51.574;6.502;2023-04-24T03:29:32;22.85;;;16.90;;
76157;SDS011;64907;51.574;6.502;2023-04-24T03:31:57;22.27;;;16.92;;
76157;SDS011;64907;51.574;6.502;2023-04-24T03:34:23;26.17;;;17.42;;
76157;SDS011;64907;51.574;6.502;2023-04-24T03:36:48;22.43;;;16.43;;
76157;SDS011;64907;51.574;6.502;2023-04-24T03:39:13;22.10;;;15.85;;
76157;SDS011;64907;51.574;6.502;2023-04-24T03:41:38;22.83;;;16.08;;
76157;SDS011;64907;51.574;6.502;2023-04-24T03:44:03;19.40;;;17.02;;
76157;SDS011;64907;51.574;6.502;2023-04-24T03:46:29;19.92;;;16.95;;
76157;SDS011;64907;51.574;6.502;2023-04-24T03:48:54;22.92;;;15.60;;
76157;SDS011;64907;51.574;6.502;2023-04-24T03:51:19;22.48;;;16.05;;
76157;SDS011;64907;51.574;6.502;2023-04-24T03:53:45;21.50;;;15.52;;
76157;SDS011;64907;51.574;6.502;2023-04-24T03:56:10;21.80;;;16.20;;
76157;SDS011;64907;51.574;6.502;2023-04-24T03:58:35;23.48;;;15.95;;
76157;SDS011;64907;51.574;6.502;2023-04-24T04:01:00;19.60;;;14.80;;
76157;SDS011;64907;51.574;6.502;2023-04-24T04:03:26;21.40;;;16.35;;
76157;SDS011;64907;51.574;6.502;2023-04-24T04:05:51;21.10;;;14.88;;
76157;SDS011;64907;51.574;6.502;2023-04-24T04:08:16;19.48;;;15.18;;
76157;SDS011;64907;51.574;6.502;2023-04-24T04:10:41;27.23;;;15.00;;
76157;SDS011;64907;51.574;6.502;2023-04-24T04:13:07;19.33;;;14.27;;
76157;SDS011;64907;51.574;6.502;2023-04-24T04:15:32;22.25;;;14.63;;
76157;SDS011;64907;51.574;6.502;2023-04-24T04:17:57;16.70;;;13.75;;
76157;SDS011;64907;51.574;6.502;2023-04-24T04:20:22;17.67;;;13.55;;
76157;SDS011;64907;51.574;6.502;2023-04-24T04:22:48;17.05;;;13.45;;
76157;SDS011;64907;51.574;6.502;2023-04-24T04:25:13;17.37;;;14.00;;
76157;SDS011;64907;51.574;6.502;2023-04-24T04:27:38;17.07;;;14.43;;
76157;SDS011;64907;51.574;6.502;2023-04-24T04:30:04;19.70;;;13.73;;
76157;SDS011;64907;51.574;6.502;2023-04-24T04:32:33;18.08;;;13.00;;
76157;SDS011;64907;51.574;6.502;2023-04-24T04:34:58;15.50;;;13.43;;
76157;SDS011;64907;51.574;6.502;2023-04-24T04:37:28;15.25;;;12.82;;
76157;SDS011;64907;51.574;6.502;2023-04-24T04:39:53;18.90;;;14.38;;
76157;SDS011;64907;51.574;6.502;2023-04-24T04:42:18;16.75;;;12.68;;
76157;SDS011;64907;51.574;6.502;2023-04-24T04:44:44;19.30;;;13.27;;
76157;SDS011;64907;51.574;6.502;2023-04-24T04:47:09;18.55;;;14.65;;
76157;SDS011;64907;51.574;6.502;2023-04-24T04:49:35;15.32;;;13.40;;
76157;SDS011;64907;51.574;6.502;2023-04-24T04:52:00;17.38;;;12.38;;
76157;SDS011;64907;51.574;6.502;2023-04-24T04:54:26;19.95;;;13.65;;
76157;SDS011;64907;51.574;6.502;2023-04-24T04:56:51;16.67;;;12.25;;
76157;SDS011;64907;51.574;6.502;2023-04-24T04:59:16;16.58;;;11.48;;
76157;SDS011;64907;51.574;6.502;2023-04-24T05:01:41;12.55;;;11.25;;
76157;SDS011;64907;51.574;6.502;2023-04-24T05:04:07;13.98;;;11.35;;
76157;SDS011;64907;51.574;6.502;2023-04-24T05:06:32;16.75;;;11.90;;
76157;SDS011;64907;51.574;6.502;2023-04-24T05:08:57;12.82;;;11.13;;
76157;SDS011;64907;51.574;6.502;2023-04-24T05:11:23;12.63;;;11.33;;
76157;SDS011;64907;51.574;6.502;2023-04-24T05:13:49;13.57;;;11.20;;
76157;SDS011;64907;51.574;6.502;2023-04-24T05:16:14;13.68;;;11.10;;
76157;SDS011;64907;51.574;6.502;2023-04-24T05:18:40;12.95;;;10.30;;
76157;SDS011;64907;51.574;6.502;2023-04-24T05:21:05;11.52;;;10.45;;
76157;SDS011;64907;51.574;6.502;2023-04-24T05:23:30;11.43;;;10.23;;
76157;SDS011;64907;51.574;6.502;2023-04-24T05:25:56;13.60;;;10.88;;
76157;SDS011;64907;51.574;6.502;2023-04-24T05:28:21;10.93;;;9.82;;
76157;SDS011;64907;51.574;6.502;2023-04-24T05:30:46;11.98;;;10.82;;
76157;SDS011;64907;51.574;6.502;2023-04-24T05:33:11;11.45;;;10.07;;
76157;SDS011;64907;51.574;6.502;2023-04-24T05:35:37;12.23;;;9.65;;
76157;SDS011;64907;51.574;6.502;2023-04-24T05:38:02;12.35;;;10.60;;
76157;SDS011;64907;51.574;6.502;2023-04-24T05:40:28;11.32;;;10.23;;
76157;SDS011;64907;51.574;6.502;2023-04-24T05:42:53;13.93;;;11.77;;
76157;SDS011;64907;51.574;6.502;2023-04-24T05:45:19;12.43;;;11.10;;
76157;SDS011;64907;51.574;6.502;2023-04-24T05:47:44;11.82;;;10.68;;
76157;SDS011;64907;51.574;6.502;2023-04-24T05:50:10;16.20;;;11.10;;
76157;SDS011;64907;51.574;6.502;2023-04-24T05:52:35;12.90;;;11.50;;
76157;SDS011;64907;51.574;6.502;2023-04-24T05:55:00;13.13;;;11.45;;
76157;SDS011;64907;51.574;6.502;2023-04-24T05:57:25;13.48;;;11.05;;
76157;SDS011;64907;51.574;6.502;2023-04-24T05:59:51;13.27;;;11.23;;
76157;SDS011;64907;51.574;6.502;2023-04-24T06:02:16;13.90;;;11.50;;
76157;SDS011;64907;51.574;6.502;2023-04-24T06:04:42;11.10;;;10.10;;
76157;SDS011;64907;51.574;6.502;2023-04-24T06:07:07;12.10;;;10.75;;
76157;SDS011;64907;51.574;6.502;2023-04-24T06:09:32;12.55;;;11.13;;
76157;SDS011;64907;51.574;6.502;2023-04-24T06:11:58;15.00;;;11.70;;
76157;SDS011;64907;51.574;6.502;2023-04-24T06:14:23;11.93;;;10.82;;
76157;SDS011;64907;51.574;6.502;2023-04-24T06:16:49;12.90;;;10.63;;
76157;SDS011;64907;51.574;6.502;2023-04-24T06:19:14;12.02;;;10.70;;
76157;SDS011;64907;51.574;6.502;2023-04-24T06:21:39;13.13;;;11.73;;
76157;SDS011;64907;51.574;6.502;2023-04-24T06:24:04;12.18;;;10.13;;
76157;SDS011;64907;51.574;6.502;2023-04-24T06:26:29;11.23;;;10.07;;
76157;SDS011;64907;51.574;6.502;2023-04-24T06:28:55;14.75;;;11.10;;
76157;SDS011;64907;51.574;6.502;2023-04-24T06:31:20;13.35;;;10.52;;
76157;SDS011;64907;51.574;6.502;2023-04-24T06:33:45;14.02;;;10.25;;
76157;SDS011;64907;51.574;6.502;2023-04-24T06:36:11;13.63;;;10.77;;
76157;SDS011;64907;51.574;6.502;2023-04-24T06:38:36;11.05;;;9.85;;
76157;SDS011;64907;51.574;6.502;2023-04-24T06:41:01;13.65;;;9.15;;
76157;SDS011;64907;51.574;6.502;2023-04-24T06:43:28;10.88;;;9.43;;
76157;SDS011;64907;51.574;6.502;2023-04-24T06:45:53;9.77;;;8.90;;
76157;SDS011;64907;51.574;6.502;2023-04-24T06:48:18;11.05;;;8.98;;
76157;SDS011;64907;51.574;6.502;2023-04-24T06:50:43;10.73;;;9.20;;
76157;SDS011;64907;51.574;6.502;2023-04-24T06:53:09;8.75;;;7.95;;
76157;SDS011;64907;51.574;6.502;2023-04-24T06:55:36;7.30;;;6.60;;
76157;SDS011;64907;51.574;6.502;2023-04-24T06:58:01;7.88;;;6.75;;
76157;SDS011;64907;51.574;6.502;2023-04-24T07:00:26;8.15;;;6.82;;
76157;SDS011;64907;51.574;6.502;2023-04-24T07:02:51;8.23;;;7.43;;
76157;SDS011;64907;51.574;6.502;2023-04-24T07:05:17;6.15;;;5.68;;
76157;SDS011;64907;51.574;6.502;2023-04-24T07:07:45;5.45;;;5.10;;
76157;SDS011;64907;51.574;6.502;2023-04-24T07:10:10;5.55;;;5.00;;
76157;SDS011;64907;51.574;6.502;2023-04-24T07:12:35;4.63;;;4.30;;
76157;SDS011;64907;51.574;6.502;2023-04-24T07:15:01;3.87;;;3.47;;
76157;SDS011;64907;51.574;6.502;2023-04-24T07:17:26;3.15;;;3.05;;
76157;SDS011;64907;51.574;6.502;2023-04-24T07:19:51;3.45;;;3.17;;
76157;SDS011;64907;51.574;6.502;2023-04-24T07:22:17;2.78;;;2.58;;
76157;SDS011;64907;51.574;6.502;2023-04-24T07:24:45;2.70;;;2.60;;
76157;SDS011;64907;51.574;6.502;2023-04-24T07:27:10;2.28;;;2.17;;
76157;SDS011;64907;51.574;6.502;2023-04-24T07:29:36;2.50;;;2.40;;
76157;SDS011;64907;51.574;6.502;2023-04-24T07:32:01;2.60;;;2.40;;
76157;SDS011;64907;51.574;6.502;2023-04-24T07:34:26;3.13;;;3.00;;
76157;SDS011;64907;51.574;6.502;2023-04-24T07:36:52;2.35;;;2.25;;
76157;SDS011;64907;51.574;6.502;2023-04-24T07:39:17;5.47;;;3.10;;
76157;SDS011;64907;51.574;6.502;2023-04-24T07:41:42;3.40;;;3.20;;
76157;SDS011;64907;51.574;6.502;2023-04-24T07:44:07;4.20;;;3.03;;
76157;SDS011;64907;51.574;6.502;2023-04-24T07:46:32;2.67;;;2.58;;
76157;SDS011;64907;51.574;6.502;2023-04-24T07:48:58;2.45;;;2.35;;
76157;SDS011;64907;51.574;6.502;2023-04-24T07:51:24;2.60;;;2.50;;
76157;SDS011;64907;51.574;6.502;2023-04-24T07:53:52;2.58;;;2.47;;
76157;SDS011;64907;51.574;6.502;2023-04-24T07:56:17;3.88;;;3.58;;
76157;SDS011;64907;51.574;6.502;2023-04-24T07:58:42;3.33;;;3.22;;
76157;SDS011;64907;51.574;6.502;2023-04-24T08:01:07;3.30;;;3.00;;
76157;SDS011;64907;51.574;6.502;2023-04-24T08:03:33;3.20;;;2.95;;
76157;SDS011;64907;51.574;6.502;2023-04-24T08:05:58;2.95;;;2.72;;
76157;SDS011;64907;51.574;6.502;2023-04-24T08:08:23;2.60;;;2.40;;
76157;SDS011;64907;51.574;6.502;2023-04-24T08:10:49;3.50;;;2.65;;
76157;SDS011;64907;51.574;6.502;2023-04-24T08:13:14;2.30;;;2.20;;
76157;SDS011;64907;51.574;6.502;2023-04-24T08:15:39;2.38;;;2.28;;
76157;SDS011;64907;51.574;6.502;2023-04-24T08:18:04;2.50;;;2.40;;
76157;SDS011;64907;51.574;6.502;2023-04-24T08:20:30;2.30;;;2.20;;
76157;SDS011;64907;51.574;6.502;2023-04-24T08:22:55;2.28;;;2.20;;
76157;SDS011;64907;51.574;6.502;2023-04-24T08:25:21;2.53;;;2.42;;
76157;SDS011;64907;51.574;6.502;2023-04-24T08:27:48;1.77;;;1.77;;
76157;SDS011;64907;51.574;6.502;2023-04-24T08:30:13;2.30;;;2.20;;
76157;SDS011;64907;51.574;6.502;2023-04-24T08:32:38;2.20;;;2.10;;
76157;SDS011;64907;51.574;6.502;2023-04-24T08:35:03;2.53;;;2.40;;
76157;SDS011;64907;51.574;6.502;2023-04-24T08:37:29;3.25;;;2.95;;
76157;SDS011;64907;51.574;6.502;2023-04-24T08:39:54;2.72;;;2.63;;
76157;SDS011;64907;51.574;6.502;2023-04-24T08:42:20;2.60;;;2.50;;
76157;SDS011;64907;51.574;6.502;2023-04-24T08:44:45;3.63;;;3.50;;
76157;SDS011;64907;51.574;6.502;2023-04-24T08:47:11;3.67;;;3.47;;
76157;SDS011;64907;51.574;6.502;2023-04-24T08:49:37;5.10;;;4.80;;
76157;SDS011;64907;51.574;6.502;2023-04-24T08:52:02;7.60;;;6.85;;
76157;SDS011;64907;51.574;6.502;2023-04-24T08:54:28;9.63;;;8.25;;
76157;SDS011;64907;51.574;6.502;2023-04-24T08:56:53;12.02;;;9.07;;
76157;SDS011;64907;51.574;6.502;2023-04-24T08:59:19;13.00;;;11.05;;
76157;SDS011;64907;51.574;6.502;2023-04-24T09:01:45;12.40;;;11.07;;
76157;SDS011;64907;51.574;6.502;2023-04-24T09:04:11;13.38;;;11.18;;
76157;SDS011;64907;51.574;6.502;2023-04-24T09:06:39;11.07;;;9.98;;
76157;SDS011;64907;51.574;6.502;2023-04-24T09:09:04;13.55;;;9.80;;
76157;SDS011;64907;51.574;6.502;2023-04-24T09:11:30;11.85;;;9.88;;
76157;SDS011;64907;51.574;6.502;2023-04-24T09:13:56;11.75;;;9.80;;
76157;SDS011;64907;51.574;6.502;2023-04-24T09:16:21;13.30;;;10.43;;
76157;SDS011;64907;51.574;6.502;2023-04-24T09:18:49;10.75;;;9.13;;
76157;SDS011;64907;51.574;6.502;2023-04-24T09:21:14;11.18;;;10.13;;
76157;SDS011;64907;51.574;6.502;2023-04-24T09:23:39;11.90;;;9.70;;
76157;SDS011;64907;51.574;6.502;2023-04-24T09:26:05;11.52;;;10.32;;
76157;SDS011;64907;51.574;6.502;2023-04-24T09:28:40;12.15;;;10.35;;
76157;SDS011;64907;51.574;6.502;2023-04-24T09:31:06;12.23;;;10.02;;
76157;SDS011;64907;51.574;6.502;2023-04-24T09:33:32;13.25;;;11.30;;
76157;SDS011;64907;51.574;6.502;2023-04-24T09:35:58;9.90;;;8.90;;
76157;SDS011;64907;51.574;6.502;2023-04-24T09:40:53;13.93;;;11.00;;
76157;SDS011;64907;51.574;6.502;2023-04-24T09:43:18;13.32;;;11.85;;
76157;SDS011;64907;51.574;6.502;2023-04-24T09:45:44;16.00;;;11.65;;
76157;SDS011;64907;51.574;6.502;2023-04-24T09:48:09;14.38;;;12.20;;
76157;SDS011;64907;51.574;6.502;2023-04-24T09:50:35;17.20;;;10.73;;
76157;SDS011;64907;51.574;6.502;2023-04-24T09:53:04;17.85;;;9.65;;
76157;SDS011;64907;51.574;6.502;2023-04-24T09:55:30;13.95;;;8.75;;
76157;SDS011;64907;51.574;6.502;2023-04-24T09:57:59;20.50;;;9.45;;
76157;SDS011;64907;51.574;6.502;2023-04-24T10:00:33;16.10;;;8.05;;
76157;SDS011;64907;51.574;6.502;2023-04-24T10:03:02;18.40;;;8.02;;
76157;SDS011;64907;51.574;6.502;2023-04-24T10:05:31;22.55;;;8.77;;
76157;SDS011;64907;51.574;6.502;2023-04-24T10:08:00;13.10;;;7.65;;
76157;SDS011;64907;51.574;6.502;2023-04-24T10:10:26;15.15;;;7.00;;
76157;SDS011;64907;51.574;6.502;2023-04-24T10:12:51;20.90;;;7.60;;
76157;SDS011;64907;51.574;6.502;2023-04-24T10:15:17;21.70;;;7.30;;
76157;SDS011;64907;51.574;6.502;2023-04-24T10:17:49;18.73;;;7.00;;
76157;SDS011;64907;51.574;6.502;2023-04-24T10:20:21;18.50;;;7.50;;
76157;SDS011;64907;51.574;6.502;2023-04-24T10:22:47;17.17;;;7.15;;
76157;SDS011;64907;51.574;6.502;2023-04-24T10:25:14;18.27;;;7.28;;
76157;SDS011;64907;51.574;6.502;2023-04-24T10:27:41;15.50;;;7.35;;
76157;SDS011;64907;51.574;6.502;2023-04-24T10:30:06;16.92;;;7.95;;
76157;SDS011;64907;51.574;6.502;2023-04-24T10:32:32;13.43;;;7.18;;
76157;SDS011;64907;51.574;6.502;2023-04-24T10:34:57;13.83;;;6.20;;
76157;SDS011;64907;51.574;6.502;2023-04-24T10:37:23;14.07;;;5.80;;
76157;SDS011;64907;51.574;6.502;2023-04-24T10:39:48;12.88;;;6.18;;
76157;SDS011;64907;51.574;6.502;2023-04-24T10:42:14;11.13;;;5.38;;
76157;SDS011;64907;51.574;6.502;2023-04-24T10:44:40;11.00;;;4.28;;
76157;SDS011;64907;51.574;6.502;2023-04-24T10:47:05;13.50;;;5.38;;
76157;SDS011;64907;51.574;6.502;2023-04-24T10:49:37;9.98;;;4.80;;
76157;SDS011;64907;51.574;6.502;2023-04-24T10:52:03;7.57;;;4.55;;
76157;SDS011;64907;51.574;6.502;2023-04-24T10:59:49;10.13;;;4.18;;
76157;SDS011;64907;51.574;6.502;2023-04-24T11:02:14;10.10;;;4.53;;
76157;SDS011;64907;51.574;6.502;2023-04-24T11:04:40;7.95;;;4.18;;
76157;SDS011;64907;51.574;6.502;2023-04-24T11:07:06;9.00;;;3.95;;
76157;SDS011;64907;51.574;6.502;2023-04-24T11:09:31;9.10;;;3.63;;
76157;SDS011;64907;51.574;6.502;2023-04-24T11:12:04;9.98;;;4.32;;
76157;SDS011;64907;51.574;6.502;2023-04-24T11:20:09;6.35;;;3.78;;
76157;SDS011;64907;51.574;6.502;2023-04-24T11:22:36;9.80;;;4.38;;
76157;SDS011;64907;51.574;6.502;2023-04-24T11:25:02;5.40;;;3.80;;
76157;SDS011;64907;51.574;6.502;2023-04-24T11:27:29;8.30;;;3.80;;
76157;SDS011;64907;51.574;6.502;2023-04-24T11:35:00;5.15;;;3.35;;
76157;SDS011;64907;51.574;6.502;2023-04-24T11:40:00;6.43;;;3.13;;
76157;SDS011;64907;51.574;6.502;2023-04-24T11:42:25;8.65;;;3.05;;
76157;SDS011;64907;51.574;6.502;2023-04-24T11:44:54;6.85;;;3.38;;
76157;SDS011;64907;51.574;6.502;2023-04-24T11:47:27;4.78;;;2.90;;
76157;SDS011;64907;51.574;6.502;2023-04-24T11:49:52;5.75;;;3.25;;
76157;SDS011;64907;51.574;6.502;2023-04-24T11:52:17;7.60;;;2.90;;
76157;SDS011;64907;51.574;6.502;2023-04-24T11:54:49;4.25;;;3.20;;
76157;SDS011;64907;51.574;6.502;2023-04-24T11:57:24;6.10;;;3.75;;
76157;SDS011;64907;51.574;6.502;2023-04-24T11:59:52;5.55;;;3.25;;
76157;SDS011;64907;51.574;6.502;2023-04-24T12:02:24;7.85;;;3.20;;
76157;SDS011;64907;51.574;6.502;2023-04-24T12:04:51;4.18;;;2.58;;
76157;SDS011;64907;51.574;6.502;2023-04-24T12:07:16;6.57;;;3.20;;
76157;SDS011;64907;51.574;6.502;2023-04-24T12:12:07;8.13;;;2.97;;
76157;SDS011;64907;51.574;6.502;2023-04-24T12:14:33;3.05;;;2.40;;
76157;SDS011;64907;51.574;6.502;2023-04-24T12:16:58;3.65;;;2.42;;
76157;SDS011;64907;51.574;6.502;2023-04-24T12:19:23;3.45;;;2.83;;
76157;SDS011;64907;51.574;6.502;2023-04-24T12:21:58;3.33;;;2.13;;
76157;SDS011;64907;51.574;6.502;2023-04-24T12:24:24;2.38;;;1.67;;
76157;SDS011;64907;51.574;6.502;2023-04-24T12:26:49;3.20;;;1.63;;
76157;SDS011;64907;51.574;6.502;2023-04-24T12:29:19;1.93;;;1.77;;
76157;SDS011;64907;51.574;6.502;2023-04-24T12:31:45;2.00;;;1.60;;
76157;SDS011;64907;51.574;6.502;2023-04-24T12:36:45;2.50;;;2.00;;
76157;SDS011;64907;51.574;6.502;2023-04-24T12:39:17;2.10;;;1.98;;
76157;SDS011;64907;51.574;6.502;2023-04-24T12:42:01;6.72;;;2.55;;
76157;SDS011;64907;51.574;6.502;2023-04-24T12:44:33;2.70;;;2.50;;
76157;SDS011;64907;51.574;6.502;2023-04-24T12:46:59;3.45;;;3.15;;
76157;SDS011;64907;51.574;6.502;2023-04-24T12:49:25;6.97;;;2.80;;
76157;SDS011;64907;51.574;6.502;2023-04-24T12:51:50;3.95;;;2.88;;
76157;SDS011;64907;51.574;6.502;2023-04-24T12:54:15;2.33;;;2.20;;
76157;SDS011;64907;51.574;6.502;2023-04-24T12:56:40;10.07;;;2.30;;
76157;SDS011;64907;51.574;6.502;2023-04-24T12:59:05;4.78;;;1.95;;
76157;SDS011;64907;51.574;6.502;2023-04-24T13:01:31;3.50;;;2.03;;
76157;SDS011;64907;51.574;6.502;2023-04-24T13:03:56;5.38;;;1.85;;
76157;SDS011;64907;51.574;6.502;2023-04-24T13:06:21;2.83;;;2.00;;
76157;SDS011;64907;51.574;6.502;2023-04-24T13:08:46;5.10;;;2.25;;
76157;SDS011;64907;51.574;6.502;2023-04-24T13:11:13;2.22;;;2.05;;
76157;SDS011;64907;51.574;6.502;2023-04-24T13:13:38;3.28;;;2.20;;
76157;SDS011;64907;51.574;6.502;2023-04-24T13:16:03;2.83;;;2.20;;
76157;SDS011;64907;51.574;6.502;2023-04-24T13:18:29;2.50;;;1.85;;
76157;SDS011;64907;51.574;6.502;2023-04-24T13:20:56;3.93;;;2.20;;
76157;SDS011;64907;51.574;6.502;2023-04-24T13:23:21;5.72;;;2.25;;
76157;SDS011;64907;51.574;6.502;2023-04-24T13:25:47;3.25;;;2.45;;
76157;SDS011;64907;51.574;6.502;2023-04-24T13:28:13;2.30;;;2.00;;
76157;SDS011;64907;51.574;6.502;2023-04-24T13:30:38;6.70;;;2.15;;
76157;SDS011;64907;51.574;6.502;2023-04-24T13:33:03;4.40;;;2.38;;
76157;SDS011;64907;51.574;6.502;2023-04-24T13:35:28;3.22;;;2.25;;
76157;SDS011;64907;51.574;6.502;2023-04-24T13:37:54;3.05;;;1.75;;
76157;SDS011;64907;51.574;6.502;2023-04-24T13:40:19;3.97;;;2.30;;
76157;SDS011;64907;51.574;6.502;2023-04-24T13:42:44;5.35;;;2.13;;
76157;SDS011;64907;51.574;6.502;2023-04-24T13:45:10;3.28;;;2.20;;
76157;SDS011;64907;51.574;6.502;2023-04-24T13:47:35;3.55;;;2.67;;
76157;SDS011;64907;51.574;6.502;2023-04-24T13:50:01;4.13;;;2.28;;
76157;SDS011;64907;51.574;6.502;2023-04-24T13:52:26;3.05;;;2.30;;
76157;SDS011;64907;51.574;6.502;2023-04-24T13:54:51;7.70;;;3.27;;
76157;SDS011;64907;51.574;6.502;2023-04-24T13:57:16;2.57;;;2.40;;
76157;SDS011;64907;51.574;6.502;2023-04-24T13:59:41;4.93;;;2.63;;
76157;SDS011;64907;51.574;6.502;2023-04-24T14:02:07;8.05;;;3.10;;
76157;SDS011;64907;51.574;6.502;2023-04-24T14:04:32;3.00;;;2.80;;
76157;SDS011;64907;51.574;6.502;2023-04-24T14:06:57;5.90;;;3.27;;
76157;SDS011;64907;51.574;6.502;2023-04-24T14:09:22;3.33;;;3.08;;
76157;SDS011;64907;51.574;6.502;2023-04-24T14:11:49;8.98;;;3.63;;
76157;SDS011;64907;51.574;6.502;2023-04-24T14:14:14;5.00;;;3.20;;
76157;SDS011;64907;51.574;6.502;2023-04-24T14:16:40;6.75;;;3.50;;
76157;SDS011;64907;51.574;6.502;2023-04-24T14:19:05;4.43;;;3.40;;
76157;SDS011;64907;51.574;6.502;2023-04-24T14:21:31;2.85;;;2.72;;
76157;SDS011;64907;51.574;6.502;2023-04-24T14:23:57;2.70;;;2.60;;
76157;SDS011;64907;51.574;6.502;2023-04-24T14:26:22;2.17;;;2.00;;
76157;SDS011;64907;51.574;6.502;2023-04-24T14:28:48;4.03;;;2.15;;
76157;SDS011;64907;51.574;6.502;2023-04-24T14:31:13;4.20;;;1.92;;
76157;SDS011;64907;51.574;6.502;2023-04-24T14:33:38;3.58;;;2.22;;
76157;SDS011;64907;51.574;6.502;2023-04-24T14:36:03;2.00;;;1.40;;
76157;SDS011;64907;51.574;6.502;2023-04-24T14:38:30;3.85;;;1.27;;
76157;SDS011;64907;51.574;6.502;2023-04-24T14:40:56;1.55;;;1.35;;
76157;SDS011;64907;51.574;6.502;2023-04-24T14:43:21;2.78;;;1.13;;
76157;SDS011;64907;51.574;6.502;2023-04-24T14:45:46;1.90;;;1.30;;
76157;SDS011;64907;51.574;6.502;2023-04-24T14:48:12;1.85;;;1.27;;
76157;SDS011;64907;51.574;6.502;2023-04-24T14:50:37;2.20;;;1.40;;
76157;SDS011;64907;51.574;6.502;2023-04-24T14:53:02;1.70;;;1.45;;